sensor_id;sensor_type;location;lat;lon;timestamp;P1;durP1;ratioP1;P2;durP2;ratioP2
20431;SDS011;10375;49.136;10.366;2023-01-15T00:02:08;3.67;;;1.47;;
20431;SDS011;10375;49.136;10.366;2023-01-15T00:04:38;7.10;;;1.97;;
20431;SDS011;10375;49.136;10.366;2023-01-15T00:07:05;4.17;;;1.87;;
20431;SDS011;10375;49.136;10.366;2023-01-15T00:09:32;6.97;;;1.50;;
20431;SDS011;10375;49.136;10.366;2023-01-15T00:11:59;3.23;;;1.73;;
20431;SDS011;10375;49.136;10.366;2023-01-15T00:14:27;7.20;;;1.97;;
20431;SDS011;10375;49.136;10.366;2023-01-15T00:16:54;3.43;;;1.67;;
20431;SDS011;10375;49.136;10.366;2023-01-15T00:19:21;1.83;;;1.40;;
20431;SDS011;10375;49.136;10.366;2023-01-15T00:21:48;4.37;;;1.27;;
20431;SDS011;10375;49.136;10.366;2023-01-15T00:24:15;3.80;;;1.40;;
20431;SDS011;10375;49.136;10.366;2023-01-15T00:27:01;3.10;;;1.50;;
20431;SDS011;10375;49.136;10.366;2023-01-15T00:29:46;3.60;;;1.60;;
20431;SDS011;10375;49.136;10.366;2023-01-15T00:32:13;1.63;;;1.23;;
20431;SDS011;10375;49.136;10.366;2023-01-15T00:34:40;2.57;;;1.37;;
20431;SDS011;10375;49.136;10.366;2023-01-15T00:37:07;2.50;;;1.30;;
20431;SDS011;10375;49.136;10.366;2023-01-15T00:39:34;3.00;;;1.23;;
20431;SDS011;10375;49.136;10.366;2023-01-15T00:42:01;1.47;;;1.20;;
20431;SDS011;10375;49.136;10.366;2023-01-15T00:44:29;1.50;;;1.40;;
20431;SDS011;10375;49.136;10.366;2023-01-15T00:46:58;1.67;;;1.30;;
20431;SDS011;10375;49.136;10.366;2023-01-15T00:49:25;4.17;;;1.30;;
20431;SDS011;10375;49.136;10.366;2023-01-15T00:51:52;3.97;;;1.00;;
20431;SDS011;10375;49.136;10.366;2023-01-15T00:54:19;2.57;;;1.20;;
20431;SDS011;10375;49.136;10.366;2023-01-15T00:56:47;1.97;;;1.17;;
20431;SDS011;10375;49.136;10.366;2023-01-15T00:59:13;2.07;;;1.30;;
20431;SDS011;10375;49.136;10.366;2023-01-15T01:01:41;9.27;;;2.67;;
20431;SDS011;10375;49.136;10.366;2023-01-15T01:04:08;7.53;;;1.93;;
20431;SDS011;10375;49.136;10.366;2023-01-15T01:06:35;4.13;;;1.23;;
20431;SDS011;10375;49.136;10.366;2023-01-15T01:09:02;6.20;;;1.63;;
20431;SDS011;10375;49.136;10.366;2023-01-15T01:11:30;1.47;;;1.27;;
20431;SDS011;10375;49.136;10.366;2023-01-15T01:13:59;2.23;;;1.43;;
20431;SDS011;10375;49.136;10.366;2023-01-15T01:16:35;0.90;;;0.90;;
20431;SDS011;10375;49.136;10.366;2023-01-15T01:19:08;8.90;;;1.20;;
20431;SDS011;10375;49.136;10.366;2023-01-15T01:21:38;1.67;;;1.20;;
20431;SDS011;10375;49.136;10.366;2023-01-15T01:24:06;1.63;;;1.10;;
20431;SDS011;10375;49.136;10.366;2023-01-15T01:26:33;1.20;;;1.10;;
20431;SDS011;10375;49.136;10.366;2023-01-15T01:29:00;1.23;;;1.10;;
20431;SDS011;10375;49.136;10.366;2023-01-15T01:31:28;1.00;;;0.97;;
20431;SDS011;10375;49.136;10.366;2023-01-15T01:33:56;2.17;;;1.20;;
20431;SDS011;10375;49.136;10.366;2023-01-15T01:36:28;1.03;;;0.80;;
20431;SDS011;10375;49.136;10.366;2023-01-15T01:39:02;2.27;;;1.10;;
20431;SDS011;10375;49.136;10.366;2023-01-15T01:41:30;1.20;;;1.10;;
20431;SDS011;10375;49.136;10.366;2023-01-15T01:44:02;1.10;;;0.97;;
20431;SDS011;10375;49.136;10.366;2023-01-15T01:46:31;1.00;;;0.90;;
20431;SDS011;10375;49.136;10.366;2023-01-15T01:49:10;2.23;;;0.90;;
20431;SDS011;10375;49.136;10.366;2023-01-15T01:51:42;0.90;;;0.90;;
20431;SDS011;10375;49.136;10.366;2023-01-15T01:54:14;0.87;;;0.87;;
20431;SDS011;10375;49.136;10.366;2023-01-15T01:56:45;0.80;;;0.80;;
20431;SDS011;10375;49.136;10.366;2023-01-15T01:59:15;1.10;;;0.90;;
20431;SDS011;10375;49.136;10.366;2023-01-15T02:01:45;1.37;;;0.93;;
20431;SDS011;10375;49.136;10.366;2023-01-15T02:04:14;0.80;;;0.80;;
20431;SDS011;10375;49.136;10.366;2023-01-15T02:06:43;1.25;;;0.80;;
20431;SDS011;10375;49.136;10.366;2023-01-15T02:09:10;0.70;;;0.70;;
20431;SDS011;10375;49.136;10.366;2023-01-15T02:11:38;0.80;;;0.80;;
20431;SDS011;10375;49.136;10.366;2023-01-15T02:17:09;2.60;;;0.83;;
20431;SDS011;10375;49.136;10.366;2023-01-15T02:27:58;2.70;;;0.70;;
20431;SDS011;10375;49.136;10.366;2023-01-15T02:30:31;0.70;;;0.70;;
20431;SDS011;10375;49.136;10.366;2023-01-15T02:33:05;1.00;;;0.90;;
20431;SDS011;10375;49.136;10.366;2023-01-15T02:35:39;1.73;;;0.87;;
20431;SDS011;10375;49.136;10.366;2023-01-15T02:38:12;1.00;;;0.90;;
20431;SDS011;10375;49.136;10.366;2023-01-15T02:40:42;1.00;;;0.80;;
20431;SDS011;10375;49.136;10.366;2023-01-15T02:43:09;0.70;;;0.70;;
20431;SDS011;10375;49.136;10.366;2023-01-15T02:45:40;1.02;;;0.60;;
20431;SDS011;10375;49.136;10.366;2023-01-15T02:48:10;4.23;;;0.70;;
20431;SDS011;10375;49.136;10.366;2023-01-15T02:50:41;1.13;;;0.80;;
20431;SDS011;10375;49.136;10.366;2023-01-15T02:53:11;0.73;;;0.70;;
20431;SDS011;10375;49.136;10.366;2023-01-15T02:55:43;1.07;;;0.83;;
20431;SDS011;10375;49.136;10.366;2023-01-15T02:58:19;0.93;;;0.70;;
20431;SDS011;10375;49.136;10.366;2023-01-15T03:00:52;0.77;;;0.70;;
20431;SDS011;10375;49.136;10.366;2023-01-15T03:08:58;2.00;;;0.60;;
20431;SDS011;10375;49.136;10.366;2023-01-15T03:11:25;1.20;;;0.70;;
20431;SDS011;10375;49.136;10.366;2023-01-15T03:13:56;0.60;;;0.60;;
20431;SDS011;10375;49.136;10.366;2023-01-15T03:16:35;1.07;;;0.70;;
20431;SDS011;10375;49.136;10.366;2023-01-15T03:22:18;0.60;;;0.60;;
20431;SDS011;10375;49.136;10.366;2023-01-15T03:25:12;2.10;;;0.80;;
20431;SDS011;10375;49.136;10.366;2023-01-15T03:27:44;7.00;;;0.93;;
20431;SDS011;10375;49.136;10.366;2023-01-15T03:30:12;0.70;;;0.70;;
20431;SDS011;10375;49.136;10.366;2023-01-15T03:32:41;0.60;;;0.60;;
20431;SDS011;10375;49.136;10.366;2023-01-15T03:35:38;1.43;;;0.67;;
20431;SDS011;10375;49.136;10.366;2023-01-15T03:38:11;1.27;;;0.60;;
20431;SDS011;10375;49.136;10.366;2023-01-15T03:40:43;2.20;;;0.83;;
20431;SDS011;10375;49.136;10.366;2023-01-15T03:43:40;0.65;;;0.65;;
20431;SDS011;10375;49.136;10.366;2023-01-15T03:46:25;0.70;;;0.70;;
20431;SDS011;10375;49.136;10.366;2023-01-15T03:49:12;0.80;;;0.67;;
20431;SDS011;10375;49.136;10.366;2023-01-15T03:51:59;1.03;;;0.80;;
20431;SDS011;10375;49.136;10.366;2023-01-15T03:54:46;1.47;;;0.70;;
20431;SDS011;10375;49.136;10.366;2023-01-15T03:57:53;0.75;;;0.70;;
20431;SDS011;10375;49.136;10.366;2023-01-15T04:00:48;0.80;;;0.80;;
20431;SDS011;10375;49.136;10.366;2023-01-15T04:03:18;4.53;;;0.80;;
20431;SDS011;10375;49.136;10.366;2023-01-15T04:05:48;0.68;;;0.60;;
20431;SDS011;10375;49.136;10.366;2023-01-15T04:08:17;0.70;;;0.70;;
20431;SDS011;10375;49.136;10.366;2023-01-15T04:10:55;0.70;;;0.70;;
20431;SDS011;10375;49.136;10.366;2023-01-15T04:13:24;1.13;;;0.73;;
20431;SDS011;10375;49.136;10.366;2023-01-15T04:15:51;0.77;;;0.57;;
20431;SDS011;10375;49.136;10.366;2023-01-15T04:18:18;1.17;;;0.77;;
20431;SDS011;10375;49.136;10.366;2023-01-15T04:20:46;0.60;;;0.60;;
20431;SDS011;10375;49.136;10.366;2023-01-15T04:23:14;0.60;;;0.60;;
20431;SDS011;10375;49.136;10.366;2023-01-15T04:25:41;1.70;;;0.68;;
20431;SDS011;10375;49.136;10.366;2023-01-15T04:28:08;1.00;;;0.57;;
20431;SDS011;10375;49.136;10.366;2023-01-15T04:30:35;0.60;;;0.50;;
20431;SDS011;10375;49.136;10.366;2023-01-15T04:33:02;1.15;;;0.70;;
20431;SDS011;10375;49.136;10.366;2023-01-15T04:35:30;1.02;;;0.85;;
20431;SDS011;10375;49.136;10.366;2023-01-15T04:37:57;0.70;;;0.70;;
20431;SDS011;10375;49.136;10.366;2023-01-15T04:40:25;0.90;;;0.55;;
20431;SDS011;10375;49.136;10.366;2023-01-15T04:43:12;0.67;;;0.60;;
20431;SDS011;10375;49.136;10.366;2023-01-15T04:45:58;0.70;;;0.70;;
20431;SDS011;10375;49.136;10.366;2023-01-15T04:48:25;1.88;;;0.80;;
20431;SDS011;10375;49.136;10.366;2023-01-15T04:50:53;0.73;;;0.73;;
20431;SDS011;10375;49.136;10.366;2023-01-15T04:53:20;1.47;;;1.00;;
20431;SDS011;10375;49.136;10.366;2023-01-15T04:55:47;1.90;;;0.90;;
20431;SDS011;10375;49.136;10.366;2023-01-15T04:58:14;4.93;;;0.88;;
20431;SDS011;10375;49.136;10.366;2023-01-15T05:00:41;5.73;;;1.20;;
20431;SDS011;10375;49.136;10.366;2023-01-15T05:03:08;0.70;;;0.70;;
20431;SDS011;10375;49.136;10.366;2023-01-15T05:05:35;1.63;;;0.80;;
20431;SDS011;10375;49.136;10.366;2023-01-15T05:08:02;2.50;;;0.90;;
20431;SDS011;10375;49.136;10.366;2023-01-15T05:10:29;2.70;;;0.90;;
20431;SDS011;10375;49.136;10.366;2023-01-15T05:12:56;1.05;;;0.70;;
20431;SDS011;10375;49.136;10.366;2023-01-15T05:15:23;1.30;;;0.80;;
20431;SDS011;10375;49.136;10.366;2023-01-15T05:17:50;4.85;;;0.95;;
20431;SDS011;10375;49.136;10.366;2023-01-15T05:20:17;0.97;;;0.80;;
20431;SDS011;10375;49.136;10.366;2023-01-15T05:22:44;0.80;;;0.80;;
20431;SDS011;10375;49.136;10.366;2023-01-15T05:25:11;2.43;;;1.27;;
20431;SDS011;10375;49.136;10.366;2023-01-15T05:27:38;1.17;;;1.00;;
20431;SDS011;10375;49.136;10.366;2023-01-15T05:30:06;0.73;;;0.73;;
20431;SDS011;10375;49.136;10.366;2023-01-15T05:32:34;3.80;;;0.90;;
20431;SDS011;10375;49.136;10.366;2023-01-15T05:35:01;0.80;;;0.70;;
20431;SDS011;10375;49.136;10.366;2023-01-15T05:37:28;1.17;;;0.70;;
20431;SDS011;10375;49.136;10.366;2023-01-15T05:39:55;0.70;;;0.70;;
20431;SDS011;10375;49.136;10.366;2023-01-15T05:42:22;0.95;;;0.68;;
20431;SDS011;10375;49.136;10.366;2023-01-15T05:44:49;2.87;;;0.70;;
20431;SDS011;10375;49.136;10.366;2023-01-15T05:47:16;0.60;;;0.60;;
20431;SDS011;10375;49.136;10.366;2023-01-15T05:49:43;1.10;;;0.53;;
20431;SDS011;10375;49.136;10.366;2023-01-15T05:52:11;0.77;;;0.70;;
20431;SDS011;10375;49.136;10.366;2023-01-15T05:54:38;1.13;;;0.70;;
20431;SDS011;10375;49.136;10.366;2023-01-15T05:57:05;0.60;;;0.60;;
20431;SDS011;10375;49.136;10.366;2023-01-15T05:59:32;0.70;;;0.70;;
20431;SDS011;10375;49.136;10.366;2023-01-15T06:01:59;0.70;;;0.70;;
20431;SDS011;10375;49.136;10.366;2023-01-15T06:04:26;2.37;;;0.80;;
20431;SDS011;10375;49.136;10.366;2023-01-15T06:06:54;0.70;;;0.70;;
20431;SDS011;10375;49.136;10.366;2023-01-15T06:09:21;0.70;;;0.65;;
20431;SDS011;10375;49.136;10.366;2023-01-15T06:11:50;2.50;;;0.70;;
20431;SDS011;10375;49.136;10.366;2023-01-15T06:14:18;4.17;;;0.60;;
20431;SDS011;10375;49.136;10.366;2023-01-15T06:16:46;1.88;;;0.60;;
20431;SDS011;10375;49.136;10.366;2023-01-15T06:19:14;1.08;;;0.70;;
20431;SDS011;10375;49.136;10.366;2023-01-15T06:21:41;5.05;;;1.73;;
20431;SDS011;10375;49.136;10.366;2023-01-15T06:24:10;3.45;;;0.85;;
20431;SDS011;10375;49.136;10.366;2023-01-15T06:26:43;4.78;;;0.75;;
20431;SDS011;10375;49.136;10.366;2023-01-15T06:29:12;1.35;;;0.70;;
20431;SDS011;10375;49.136;10.366;2023-01-15T06:31:46;1.77;;;0.70;;
20431;SDS011;10375;49.136;10.366;2023-01-15T06:34:16;0.60;;;0.60;;
20431;SDS011;10375;49.136;10.366;2023-01-15T06:36:43;6.22;;;0.90;;
20431;SDS011;10375;49.136;10.366;2023-01-15T06:39:10;2.10;;;0.70;;
20431;SDS011;10375;49.136;10.366;2023-01-15T06:44:26;4.13;;;0.90;;
20431;SDS011;10375;49.136;10.366;2023-01-15T06:47:14;1.73;;;1.63;;
20431;SDS011;10375;49.136;10.366;2023-01-15T06:50:04;3.00;;;1.00;;
20431;SDS011;10375;49.136;10.366;2023-01-15T06:52:31;10.97;;;1.50;;
20431;SDS011;10375;49.136;10.366;2023-01-15T06:55:00;9.13;;;0.83;;
20431;SDS011;10375;49.136;10.366;2023-01-15T06:57:27;4.40;;;0.87;;
20431;SDS011;10375;49.136;10.366;2023-01-15T06:59:56;3.60;;;0.80;;
20431;SDS011;10375;49.136;10.366;2023-01-15T07:02:23;15.13;;;1.20;;
20431;SDS011;10375;49.136;10.366;2023-01-15T07:04:51;5.80;;;1.00;;
20431;SDS011;10375;49.136;10.366;2023-01-15T07:07:21;2.60;;;1.10;;
20431;SDS011;10375;49.136;10.366;2023-01-15T07:09:51;1.43;;;0.60;;
20431;SDS011;10375;49.136;10.366;2023-01-15T07:12:18;1.10;;;0.60;;
20431;SDS011;10375;49.136;10.366;2023-01-15T07:14:46;0.53;;;0.50;;
20431;SDS011;10375;49.136;10.366;2023-01-15T07:17:20;0.63;;;0.63;;
20431;SDS011;10375;49.136;10.366;2023-01-15T07:19:47;0.60;;;0.60;;
20431;SDS011;10375;49.136;10.366;2023-01-15T07:22:14;0.60;;;0.60;;
20431;SDS011;10375;49.136;10.366;2023-01-15T07:24:46;1.40;;;0.80;;
20431;SDS011;10375;49.136;10.366;2023-01-15T07:27:17;0.70;;;0.70;;
20431;SDS011;10375;49.136;10.366;2023-01-15T07:29:51;0.60;;;0.60;;
20431;SDS011;10375;49.136;10.366;2023-01-15T07:32:22;1.23;;;0.90;;
20431;SDS011;10375;49.136;10.366;2023-01-15T07:34:58;1.07;;;0.97;;
20431;SDS011;10375;49.136;10.366;2023-01-15T07:37:27;0.70;;;0.70;;
20431;SDS011;10375;49.136;10.366;2023-01-15T07:39:54;0.90;;;0.80;;
20431;SDS011;10375;49.136;10.366;2023-01-15T07:42:27;0.70;;;0.70;;
20431;SDS011;10375;49.136;10.366;2023-01-15T07:45:17;2.20;;;1.00;;
20431;SDS011;10375;49.136;10.366;2023-01-15T07:48:09;0.80;;;0.73;;
20431;SDS011;10375;49.136;10.366;2023-01-15T07:50:56;1.27;;;0.80;;
20431;SDS011;10375;49.136;10.366;2023-01-15T07:53:23;2.00;;;0.70;;
20431;SDS011;10375;49.136;10.366;2023-01-15T07:56:01;2.47;;;0.80;;
20431;SDS011;10375;49.136;10.366;2023-01-15T07:58:31;1.33;;;1.00;;
20431;SDS011;10375;49.136;10.366;2023-01-15T08:01:18;0.70;;;0.70;;
20431;SDS011;10375;49.136;10.366;2023-01-15T08:03:48;1.00;;;0.70;;
20431;SDS011;10375;49.136;10.366;2023-01-15T08:06:26;0.60;;;0.60;;
20431;SDS011;10375;49.136;10.366;2023-01-15T08:08:54;0.70;;;0.70;;
20431;SDS011;10375;49.136;10.366;2023-01-15T08:11:22;0.60;;;0.60;;
20431;SDS011;10375;49.136;10.366;2023-01-15T08:14:12;0.77;;;0.70;;
20431;SDS011;10375;49.136;10.366;2023-01-15T08:16:59;0.60;;;0.60;;
20431;SDS011;10375;49.136;10.366;2023-01-15T08:19:26;1.13;;;0.60;;
20431;SDS011;10375;49.136;10.366;2023-01-15T08:21:58;0.70;;;0.70;;
20431;SDS011;10375;49.136;10.366;2023-01-15T08:24:28;0.97;;;0.63;;
20431;SDS011;10375;49.136;10.366;2023-01-15T08:26:56;0.50;;;0.50;;
20431;SDS011;10375;49.136;10.366;2023-01-15T08:29:24;0.70;;;0.70;;
20431;SDS011;10375;49.136;10.366;2023-01-15T08:31:52;0.70;;;0.70;;
20431;SDS011;10375;49.136;10.366;2023-01-15T08:34:28;0.80;;;0.80;;
20431;SDS011;10375;49.136;10.366;2023-01-15T08:36:59;5.40;;;3.23;;
20431;SDS011;10375;49.136;10.366;2023-01-15T08:39:29;2.60;;;1.90;;
20431;SDS011;10375;49.136;10.366;2023-01-15T08:42:25;11.00;;;5.97;;
20431;SDS011;10375;49.136;10.366;2023-01-15T08:45:02;12.00;;;6.53;;
20431;SDS011;10375;49.136;10.366;2023-01-15T08:47:32;5.13;;;3.63;;
20431;SDS011;10375;49.136;10.366;2023-01-15T08:49:59;3.60;;;2.60;;
20431;SDS011;10375;49.136;10.366;2023-01-15T08:52:27;1.90;;;1.37;;
20431;SDS011;10375;49.136;10.366;2023-01-15T08:55:02;5.17;;;3.30;;
20431;SDS011;10375;49.136;10.366;2023-01-15T08:57:45;1.47;;;1.33;;
20431;SDS011;10375;49.136;10.366;2023-01-15T09:00:12;1.17;;;0.80;;
20431;SDS011;10375;49.136;10.366;2023-01-15T09:02:48;0.90;;;0.90;;
20431;SDS011;10375;49.136;10.366;2023-01-15T09:05:16;4.00;;;3.13;;
20431;SDS011;10375;49.136;10.366;2023-01-15T09:10:23;1.10;;;1.00;;
20431;SDS011;10375;49.136;10.366;2023-01-15T09:12:59;1.10;;;1.00;;
20431;SDS011;10375;49.136;10.366;2023-01-15T09:15:31;1.67;;;0.90;;
20431;SDS011;10375;49.136;10.366;2023-01-15T09:17:59;0.90;;;0.90;;
20431;SDS011;10375;49.136;10.366;2023-01-15T09:20:30;0.97;;;0.97;;
20431;SDS011;10375;49.136;10.366;2023-01-15T09:22:59;3.87;;;3.43;;
20431;SDS011;10375;49.136;10.366;2023-01-15T09:25:26;2.67;;;2.03;;
20431;SDS011;10375;49.136;10.366;2023-01-15T09:27:54;1.30;;;1.20;;
20431;SDS011;10375;49.136;10.366;2023-01-15T09:30:22;2.77;;;2.40;;
20431;SDS011;10375;49.136;10.366;2023-01-15T09:32:52;3.13;;;1.93;;
20431;SDS011;10375;49.136;10.366;2023-01-15T09:35:20;2.83;;;2.10;;
20431;SDS011;10375;49.136;10.366;2023-01-15T09:37:51;2.50;;;1.93;;
20431;SDS011;10375;49.136;10.366;2023-01-15T09:43:28;2.57;;;1.83;;
20431;SDS011;10375;49.136;10.366;2023-01-15T09:46:54;1.27;;;1.17;;
20431;SDS011;10375;49.136;10.366;2023-01-15T09:49:26;0.70;;;0.70;;
20431;SDS011;10375;49.136;10.366;2023-01-15T09:52:13;1.80;;;1.40;;
20431;SDS011;10375;49.136;10.366;2023-01-15T09:55:12;1.20;;;1.10;;
20431;SDS011;10375;49.136;10.366;2023-01-15T09:57:54;0.73;;;0.73;;
20431;SDS011;10375;49.136;10.366;2023-01-15T10:00:25;2.50;;;1.67;;
20431;SDS011;10375;49.136;10.366;2023-01-15T10:03:06;1.83;;;1.07;;
20431;SDS011;10375;49.136;10.366;2023-01-15T10:06:29;4.33;;;2.90;;
20431;SDS011;10375;49.136;10.366;2023-01-15T10:09:17;1.93;;;1.40;;
20431;SDS011;10375;49.136;10.366;2023-01-15T10:12:25;0.93;;;0.90;;
20431;SDS011;10375;49.136;10.366;2023-01-15T10:15:03;1.10;;;1.00;;
20431;SDS011;10375;49.136;10.366;2023-01-15T10:28:58;0.80;;;0.80;;
20431;SDS011;10375;49.136;10.366;2023-01-15T10:31:35;1.20;;;1.10;;
20431;SDS011;10375;49.136;10.366;2023-01-15T10:37:36;1.13;;;0.90;;
20431;SDS011;10375;49.136;10.366;2023-01-15T10:46:00;1.10;;;0.90;;
20431;SDS011;10375;49.136;10.366;2023-01-15T10:51:23;1.23;;;0.90;;
20431;SDS011;10375;49.136;10.366;2023-01-15T10:56:40;0.80;;;0.80;;
20431;SDS011;10375;49.136;10.366;2023-01-15T11:02:38;1.07;;;0.80;;
20431;SDS011;10375;49.136;10.366;2023-01-15T11:05:16;0.70;;;0.70;;
20431;SDS011;10375;49.136;10.366;2023-01-15T11:07:46;0.80;;;0.80;;
20431;SDS011;10375;49.136;10.366;2023-01-15T11:10:35;0.80;;;0.80;;
20431;SDS011;10375;49.136;10.366;2023-01-15T11:16:38;0.80;;;0.80;;
20431;SDS011;10375;49.136;10.366;2023-01-15T11:19:34;0.80;;;0.80;;
20431;SDS011;10375;49.136;10.366;2023-01-15T11:22:06;0.90;;;0.90;;
20431;SDS011;10375;49.136;10.366;2023-01-15T11:25:02;3.63;;;1.70;;
20431;SDS011;10375;49.136;10.366;2023-01-15T11:27:30;2.37;;;1.77;;
20431;SDS011;10375;49.136;10.366;2023-01-15T11:30:05;2.00;;;0.90;;
20431;SDS011;10375;49.136;10.366;2023-01-15T11:34:02;1.00;;;1.00;;
20431;SDS011;10375;49.136;10.366;2023-01-15T11:39:02;0.93;;;0.80;;
20431;SDS011;10375;49.136;10.366;2023-01-15T11:41:33;4.67;;;0.90;;
20431;SDS011;10375;49.136;10.366;2023-01-15T11:44:22;1.03;;;1.00;;
20431;SDS011;10375;49.136;10.366;2023-01-15T11:47:12;0.87;;;0.87;;
20431;SDS011;10375;49.136;10.366;2023-01-15T11:50:25;0.93;;;0.90;;
20431;SDS011;10375;49.136;10.366;2023-01-15T11:53:15;0.80;;;0.70;;
20431;SDS011;10375;49.136;10.366;2023-01-15T11:56:03;2.83;;;2.60;;
20431;SDS011;10375;49.136;10.366;2023-01-15T11:58:38;2.97;;;1.00;;
20431;SDS011;10375;49.136;10.366;2023-01-15T12:01:31;1.20;;;1.00;;
20431;SDS011;10375;49.136;10.366;2023-01-15T12:07:21;1.23;;;0.80;;
20431;SDS011;10375;49.136;10.366;2023-01-15T12:18:51;0.77;;;0.77;;
20431;SDS011;10375;49.136;10.366;2023-01-15T12:27:23;0.80;;;0.80;;
20431;SDS011;10375;49.136;10.366;2023-01-15T12:30:12;0.90;;;0.90;;
20431;SDS011;10375;49.136;10.366;2023-01-15T12:33:39;0.87;;;0.80;;
20431;SDS011;10375;49.136;10.366;2023-01-15T12:35:55;0.93;;;0.93;;
20431;SDS011;10375;49.136;10.366;2023-01-15T12:38:50;5.77;;;1.30;;
20431;SDS011;10375;49.136;10.366;2023-01-15T12:41:31;3.73;;;1.07;;
20431;SDS011;10375;49.136;10.366;2023-01-15T12:53:10;1.23;;;1.00;;
20431;SDS011;10375;49.136;10.366;2023-01-15T12:56:01;1.77;;;1.20;;
20431;SDS011;10375;49.136;10.366;2023-01-15T12:58:39;1.20;;;1.10;;
20431;SDS011;10375;49.136;10.366;2023-01-15T13:01:20;4.93;;;2.73;;
20431;SDS011;10375;49.136;10.366;2023-01-15T13:04:19;4.20;;;2.13;;
20431;SDS011;10375;49.136;10.366;2023-01-15T13:07:13;6.73;;;3.77;;
20431;SDS011;10375;49.136;10.366;2023-01-15T13:10:10;11.27;;;5.83;;
20431;SDS011;10375;49.136;10.366;2023-01-15T13:12:58;7.27;;;3.63;;
20431;SDS011;10375;49.136;10.366;2023-01-15T13:15:40;2.23;;;1.97;;
20431;SDS011;10375;49.136;10.366;2023-01-15T13:18:25;4.33;;;2.50;;
20431;SDS011;10375;49.136;10.366;2023-01-15T13:21:10;3.20;;;1.60;;
20431;SDS011;10375;49.136;10.366;2023-01-15T13:32:41;17.63;;;8.63;;
20431;SDS011;10375;49.136;10.366;2023-01-15T13:35:32;9.77;;;2.20;;
20431;SDS011;10375;49.136;10.366;2023-01-15T13:38:05;3.83;;;2.57;;
20431;SDS011;10375;49.136;10.366;2023-01-15T13:40:42;7.03;;;2.53;;
20431;SDS011;10375;49.136;10.366;2023-01-15T13:43:23;5.23;;;3.30;;
20431;SDS011;10375;49.136;10.366;2023-01-15T13:46:10;5.67;;;2.33;;
20431;SDS011;10375;49.136;10.366;2023-01-15T13:48:46;4.67;;;3.30;;
20431;SDS011;10375;49.136;10.366;2023-01-15T13:51:32;9.37;;;5.10;;
20431;SDS011;10375;49.136;10.366;2023-01-15T13:54:11;5.37;;;2.20;;
20431;SDS011;10375;49.136;10.366;2023-01-15T13:56:41;14.00;;;6.10;;
20431;SDS011;10375;49.136;10.366;2023-01-15T14:02:29;4.70;;;2.63;;
20431;SDS011;10375;49.136;10.366;2023-01-15T14:05:22;8.87;;;2.43;;
20431;SDS011;10375;49.136;10.366;2023-01-15T14:07:54;5.13;;;2.00;;
20431;SDS011;10375;49.136;10.366;2023-01-15T14:10:32;6.27;;;3.50;;
20431;SDS011;10375;49.136;10.366;2023-01-15T14:15:59;3.47;;;1.73;;
20431;SDS011;10375;49.136;10.366;2023-01-15T14:21:58;18.33;;;3.53;;
20431;SDS011;10375;49.136;10.366;2023-01-15T14:30:18;3.50;;;1.50;;
20431;SDS011;10375;49.136;10.366;2023-01-15T14:36:23;3.47;;;2.90;;
20431;SDS011;10375;49.136;10.366;2023-01-15T14:38:59;7.07;;;2.70;;
20431;SDS011;10375;49.136;10.366;2023-01-15T14:41:30;3.87;;;1.60;;
20431;SDS011;10375;49.136;10.366;2023-01-15T14:44:28;4.07;;;2.47;;
20431;SDS011;10375;49.136;10.366;2023-01-15T14:47:00;1.27;;;1.17;;
20431;SDS011;10375;49.136;10.366;2023-01-15T14:49:30;2.17;;;1.57;;
20431;SDS011;10375;49.136;10.366;2023-01-15T14:52:08;3.63;;;1.20;;
20431;SDS011;10375;49.136;10.366;2023-01-15T14:54:36;2.50;;;1.33;;
20431;SDS011;10375;49.136;10.366;2023-01-15T14:57:06;4.40;;;1.60;;
20431;SDS011;10375;49.136;10.366;2023-01-15T15:02:20;2.83;;;1.20;;
20431;SDS011;10375;49.136;10.366;2023-01-15T15:04:51;3.20;;;1.50;;
20431;SDS011;10375;49.136;10.366;2023-01-15T15:07:29;2.23;;;1.17;;
20431;SDS011;10375;49.136;10.366;2023-01-15T15:10:17;6.50;;;1.40;;
20431;SDS011;10375;49.136;10.366;2023-01-15T15:15:56;23.00;;;2.13;;
20431;SDS011;10375;49.136;10.366;2023-01-15T15:18:40;9.30;;;1.53;;
20431;SDS011;10375;49.136;10.366;2023-01-15T15:21:17;3.43;;;1.17;;
20431;SDS011;10375;49.136;10.366;2023-01-15T15:31:28;6.43;;;1.67;;
20431;SDS011;10375;49.136;10.366;2023-01-15T15:34:02;15.97;;;2.50;;
20431;SDS011;10375;49.136;10.366;2023-01-15T15:36:33;2.60;;;1.80;;
20431;SDS011;10375;49.136;10.366;2023-01-15T15:42:25;5.87;;;2.27;;
20431;SDS011;10375;49.136;10.366;2023-01-15T15:45:18;3.73;;;2.27;;
20431;SDS011;10375;49.136;10.366;2023-01-15T15:48:11;3.87;;;2.40;;
20431;SDS011;10375;49.136;10.366;2023-01-15T15:51:24;4.63;;;2.00;;
20431;SDS011;10375;49.136;10.366;2023-01-15T15:54:03;4.03;;;2.73;;
20431;SDS011;10375;49.136;10.366;2023-01-15T15:56:39;7.70;;;4.77;;
20431;SDS011;10375;49.136;10.366;2023-01-15T16:01:56;9.87;;;5.73;;
20431;SDS011;10375;49.136;10.366;2023-01-15T16:04:26;5.20;;;3.77;;
20431;SDS011;10375;49.136;10.366;2023-01-15T16:06:54;2.33;;;1.70;;
20431;SDS011;10375;49.136;10.366;2023-01-15T16:09:22;9.80;;;4.90;;
20431;SDS011;10375;49.136;10.366;2023-01-15T16:11:50;5.73;;;4.13;;
20431;SDS011;10375;49.136;10.366;2023-01-15T16:14:18;88.47;;;67.73;;
20431;SDS011;10375;49.136;10.366;2023-01-15T16:16:47;60.83;;;42.63;;
20431;SDS011;10375;49.136;10.366;2023-01-15T16:19:20;46.30;;;31.20;;
20431;SDS011;10375;49.136;10.366;2023-01-15T16:21:50;162.77;;;112.93;;
20431;SDS011;10375;49.136;10.366;2023-01-15T16:24:28;87.13;;;49.73;;
20431;SDS011;10375;49.136;10.366;2023-01-15T16:27:13;31.07;;;26.47;;
20431;SDS011;10375;49.136;10.366;2023-01-15T16:29:46;4.83;;;4.33;;
20431;SDS011;10375;49.136;10.366;2023-01-15T16:32:19;3.10;;;2.80;;
20431;SDS011;10375;49.136;10.366;2023-01-15T16:34:50;3.43;;;1.30;;
20431;SDS011;10375;49.136;10.366;2023-01-15T16:37:32;4.03;;;1.50;;
20431;SDS011;10375;49.136;10.366;2023-01-15T16:40:01;1.23;;;1.13;;
20431;SDS011;10375;49.136;10.366;2023-01-15T16:45:20;6.20;;;2.40;;
20431;SDS011;10375;49.136;10.366;2023-01-15T16:50:34;4.03;;;2.00;;
20431;SDS011;10375;49.136;10.366;2023-01-15T16:53:03;2.03;;;1.43;;
20431;SDS011;10375;49.136;10.366;2023-01-15T16:55:39;2.10;;;1.60;;
20431;SDS011;10375;49.136;10.366;2023-01-15T17:00:42;2.73;;;1.37;;
20431;SDS011;10375;49.136;10.366;2023-01-15T17:03:20;2.50;;;1.73;;
20431;SDS011;10375;49.136;10.366;2023-01-15T17:05:52;4.37;;;1.87;;
20431;SDS011;10375;49.136;10.366;2023-01-15T17:08:22;2.87;;;1.50;;
20431;SDS011;10375;49.136;10.366;2023-01-15T17:10:58;4.63;;;1.77;;
20431;SDS011;10375;49.136;10.366;2023-01-15T17:13:31;5.70;;;2.60;;
20431;SDS011;10375;49.136;10.366;2023-01-15T17:16:24;3.90;;;1.60;;
20431;SDS011;10375;49.136;10.366;2023-01-15T17:18:51;3.77;;;1.77;;
20431;SDS011;10375;49.136;10.366;2023-01-15T17:21:19;2.97;;;1.20;;
20431;SDS011;10375;49.136;10.366;2023-01-15T17:23:54;1.50;;;1.40;;
20431;SDS011;10375;49.136;10.366;2023-01-15T17:26:23;2.17;;;1.90;;
20431;SDS011;10375;49.136;10.366;2023-01-15T17:28:52;2.73;;;1.30;;
20431;SDS011;10375;49.136;10.366;2023-01-15T17:31:24;2.20;;;1.30;;
20431;SDS011;10375;49.136;10.366;2023-01-15T17:33:57;3.70;;;1.30;;
20431;SDS011;10375;49.136;10.366;2023-01-15T17:36:27;1.50;;;1.40;;
20431;SDS011;10375;49.136;10.366;2023-01-15T17:38:55;1.93;;;1.33;;
20431;SDS011;10375;49.136;10.366;2023-01-15T17:41:22;1.90;;;1.10;;
20431;SDS011;10375;49.136;10.366;2023-01-15T17:43:49;3.00;;;1.40;;